sensor_id;sensor_type;location;lat;lon;timestamp;pressure;altitude;pressure_sealevel;temperature;humidity
4858;BME280;58975;51.978;8.472;2023-06-14T00:01:13;100322.03;;;15.96;75.57
4858;BME280;58975;51.978;8.472;2023-06-14T00:06:10;100333.28;;;16.00;75.59
4858;BME280;58975;51.978;8.472;2023-06-14T00:11:06;100328.44;;;15.95;75.21
4858;BME280;58975;51.978;8.472;2023-06-14T00:16:03;100339.31;;;15.94;76.29
4858;BME280;58975;51.978;8.472;2023-06-14T00:21:00;100339.94;;;15.88;79.78
4858;BME280;58975;51.978;8.472;2023-06-14T00:25:58;100340.59;;;15.82;79.42
4858;BME280;58975;51.978;8.472;2023-06-14T00:30:55;100349.50;;;15.82;81.16
4858;BME280;58975;51.978;8.472;2023-06-14T00:35:51;100349.34;;;15.84;79.15
4858;BME280;58975;51.978;8.472;2023-06-14T00:40:50;100349.69;;;15.89;77.86
4858;BME280;58975;51.978;8.472;2023-06-14T00:45:47;100348.78;;;15.80;81.66
4858;BME280;58975;51.978;8.472;2023-06-14T00:50:46;100348.38;;;15.67;82.42
4858;BME280;58975;51.978;8.472;2023-06-14T00:55:45;100354.31;;;15.53;85.54
4858;BME280;58975;51.978;8.472;2023-06-14T01:00:41;100361.59;;;15.43;88.11
4858;BME280;58975;51.978;8.472;2023-06-14T01:05:39;100363.09;;;15.45;86.68
4858;BME280;58975;51.978;8.472;2023-06-14T01:10:59;100366.50;;;15.30;86.99
4858;BME280;58975;51.978;8.472;2023-06-14T01:15:58;100355.53;;;15.23;88.04
4858;BME280;58975;51.978;8.472;2023-06-14T01:20:56;100356.06;;;15.27;88.89
4858;BME280;58975;51.978;8.472;2023-06-14T01:25:52;100363.59;;;15.23;87.68
4858;BME280;58975;51.978;8.472;2023-06-14T01:30:52;100367.41;;;15.03;92.25
4858;BME280;58975;51.978;8.472;2023-06-14T01:35:51;100367.34;;;14.95;93.16
4858;BME280;58975;51.978;8.472;2023-06-14T01:40:49;100367.09;;;14.88;94.54
4858;BME280;58975;51.978;8.472;2023-06-14T01:45:48;100377.22;;;14.77;96.97
4858;BME280;58975;51.978;8.472;2023-06-14T01:50:49;100374.28;;;14.43;100.00
4858;BME280;58975;51.978;8.472;2023-06-14T01:55:46;100373.47;;;14.42;100.00
4858;BME280;58975;51.978;8.472;2023-06-14T02:00:45;100381.50;;;14.42;100.00
4858;BME280;58975;51.978;8.472;2023-06-14T02:05:41;100379.63;;;14.43;100.00
4858;BME280;58975;51.978;8.472;2023-06-14T02:10:38;100384.31;;;14.31;100.00
4858;BME280;58975;51.978;8.472;2023-06-14T02:15:34;100385.09;;;14.14;100.00
4858;BME280;58975;51.978;8.472;2023-06-14T02:20:32;100387.78;;;14.04;100.00
4858;BME280;58975;51.978;8.472;2023-06-14T02:25:28;100394.59;;;13.89;100.00
4858;BME280;58975;51.978;8.472;2023-06-14T02:30:25;100396.19;;;13.72;100.00
4858;BME280;58975;51.978;8.472;2023-06-14T02:35:21;100395.38;;;13.62;100.00
4858;BME280;58975;51.978;8.472;2023-06-14T02:40:20;100392.94;;;13.69;100.00
4858;BME280;58975;51.978;8.472;2023-06-14T02:45:17;100391.41;;;13.66;100.00
4858;BME280;58975;51.978;8.472;2023-06-14T02:50:14;100384.66;;;13.62;100.00
4858;BME280;58975;51.978;8.472;2023-06-14T02:55:11;100391.72;;;13.63;100.00
4858;BME280;58975;51.978;8.472;2023-06-14T03:00:08;100395.53;;;13.51;100.00
4858;BME280;58975;51.978;8.472;2023-06-14T03:05:10;100400.28;;;13.57;100.00
4858;BME280;58975;51.978;8.472;2023-06-14T03:10:08;100407.59;;;13.74;100.00
4858;BME280;58975;51.978;8.472;2023-06-14T03:15:05;100403.91;;;13.85;100.00
4858;BME280;58975;51.978;8.472;2023-06-14T03:20:02;100400.25;;;13.86;100.00
4858;BME280;58975;51.978;8.472;2023-06-14T03:24:59;100418.28;;;13.94;100.00
4858;BME280;58975;51.978;8.472;2023-06-14T03:29:56;100412.50;;;13.98;100.00
4858;BME280;58975;51.978;8.472;2023-06-14T03:34:53;100411.81;;;13.87;100.00
4858;BME280;58975;51.978;8.472;2023-06-14T03:39:50;100419.00;;;13.86;100.00
4858;BME280;58975;51.978;8.472;2023-06-14T03:44:46;100415.22;;;13.79;100.00
4858;BME280;58975;51.978;8.472;2023-06-14T03:49:43;100430.84;;;13.84;100.00
4858;BME280;58975;51.978;8.472;2023-06-14T03:54:39;100433.66;;;13.82;100.00
4858;BME280;58975;51.978;8.472;2023-06-14T03:59:56;100438.41;;;13.88;100.00
4858;BME280;58975;51.978;8.472;2023-06-14T04:04:53;100441.38;;;13.95;100.00
4858;BME280;58975;51.978;8.472;2023-06-14T04:09:50;100449.81;;;14.00;100.00
4858;BME280;58975;51.978;8.472;2023-06-14T04:14:47;100459.97;;;14.06;100.00
4858;BME280;58975;51.978;8.472;2023-06-14T04:19:43;100476.59;;;14.09;100.00
4858;BME280;58975;51.978;8.472;2023-06-14T04:24:40;100476.88;;;14.06;100.00
4858;BME280;58975;51.978;8.472;2023-06-14T04:29:38;100479.56;;;14.06;100.00
4858;BME280;58975;51.978;8.472;2023-06-14T04:34:35;100484.47;;;14.11;100.00
4858;BME280;58975;51.978;8.472;2023-06-14T04:39:33;100479.22;;;14.29;100.00
4858;BME280;58975;51.978;8.472;2023-06-14T04:44:30;100481.34;;;14.35;100.00
4858;BME280;58975;51.978;8.472;2023-06-14T04:49:28;100486.25;;;14.39;100.00
4858;BME280;58975;51.978;8.472;2023-06-14T04:54:27;100496.84;;;14.41;100.00
4858;BME280;58975;51.978;8.472;2023-06-14T04:59:23;100494.41;;;14.47;100.00
4858;BME280;58975;51.978;8.472;2023-06-14T05:04:20;100497.75;;;14.59;100.00
4858;BME280;58975;51.978;8.472;2023-06-14T05:09:18;100512.56;;;14.63;100.00
4858;BME280;58975;51.978;8.472;2023-06-14T05:14:15;100510.53;;;14.75;100.00
4858;BME280;58975;51.978;8.472;2023-06-14T05:19:11;100506.97;;;14.84;100.00
4858;BME280;58975;51.978;8.472;2023-06-14T05:24:08;100521.75;;;14.97;100.00
4858;BME280;58975;51.978;8.472;2023-06-14T05:29:05;100516.28;;;15.17;100.00
4858;BME280;58975;51.978;8.472;2023-06-14T05:34:02;100511.91;;;15.33;100.00
4858;BME280;58975;51.978;8.472;2023-06-14T05:38:59;100517.34;;;15.69;100.00
4858;BME280;58975;51.978;8.472;2023-06-14T05:43:57;100514.03;;;15.92;100.00
4858;BME280;58975;51.978;8.472;2023-06-14T05:48:54;100521.13;;;16.19;100.00
4858;BME280;58975;51.978;8.472;2023-06-14T05:53:50;100521.69;;;16.48;100.00
4858;BME280;58975;51.978;8.472;2023-06-14T05:58:47;100528.66;;;16.85;100.00
4858;BME280;58975;51.978;8.472;2023-06-14T06:03:44;100528.25;;;16.72;100.00
4858;BME280;58975;51.978;8.472;2023-06-14T06:08:44;100529.75;;;17.00;100.00
4858;BME280;58975;51.978;8.472;2023-06-14T06:13:41;100535.72;;;17.20;100.00
4858;BME280;58975;51.978;8.472;2023-06-14T06:18:37;100538.44;;;17.28;100.00
4858;BME280;58975;51.978;8.472;2023-06-14T06:23:35;100539.25;;;17.20;99.91
4858;BME280;58975;51.978;8.472;2023-06-14T06:28:32;100539.88;;;17.14;100.00
4858;BME280;58975;51.978;8.472;2023-06-14T06:33:28;100532.03;;;17.37;98.41
4858;BME280;58975;51.978;8.472;2023-06-14T06:38:24;100548.91;;;17.39;91.23
4858;BME280;58975;51.978;8.472;2023-06-14T06:43:21;100550.25;;;17.43;89.56
4858;BME280;58975;51.978;8.472;2023-06-14T06:48:18;100556.28;;;17.87;91.40
4858;BME280;58975;51.978;8.472;2023-06-14T06:53:14;100548.53;;;18.24;87.48
4858;BME280;58975;51.978;8.472;2023-06-14T06:58:16;100558.31;;;18.09;83.09
4858;BME280;58975;51.978;8.472;2023-06-14T07:03:12;100558.28;;;17.93;83.18
4858;BME280;58975;51.978;8.472;2023-06-14T07:08:09;100572.94;;;17.90;81.72
4858;BME280;58975;51.978;8.472;2023-06-14T07:13:05;100561.69;;;18.11;84.99
4858;BME280;58975;51.978;8.472;2023-06-14T07:18:05;100566.22;;;18.35;82.42
4858;BME280;58975;51.978;8.472;2023-06-14T07:23:03;100563.19;;;17.89;78.40
4858;BME280;58975;51.978;8.472;2023-06-14T07:28:00;100579.56;;;18.53;86.86
4858;BME280;58975;51.978;8.472;2023-06-14T07:32:56;100572.44;;;18.68;77.65
4858;BME280;58975;51.978;8.472;2023-06-14T07:37:53;100570.13;;;18.57;79.58
4858;BME280;58975;51.978;8.472;2023-06-14T07:42:50;100574.16;;;18.28;86.09
4858;BME280;58975;51.978;8.472;2023-06-14T07:47:46;100584.25;;;18.67;85.60
4858;BME280;58975;51.978;8.472;2023-06-14T07:52:44;100587.78;;;18.75;74.18
4858;BME280;58975;51.978;8.472;2023-06-14T07:57:41;100574.66;;;18.72;74.57
4858;BME280;58975;51.978;8.472;2023-06-14T08:02:39;100573.75;;;18.96;73.20
4858;BME280;58975;51.978;8.472;2023-06-14T08:07:35;100588.94;;;18.97;69.69
4858;BME280;58975;51.978;8.472;2023-06-14T08:12:32;100579.03;;;19.28;74.62
4858;BME280;58975;51.978;8.472;2023-06-14T08:17:29;100581.69;;;19.36;72.76
4858;BME280;58975;51.978;8.472;2023-06-14T08:22:25;100582.34;;;19.47;70.43
4858;BME280;58975;51.978;8.472;2023-06-14T08:27:24;100582.69;;;18.97;71.84
4858;BME280;58975;51.978;8.472;2023-06-14T08:32:20;100589.44;;;19.48;70.34
4858;BME280;58975;51.978;8.472;2023-06-14T08:37:17;100590.41;;;19.55;68.90
4858;BME280;58975;51.978;8.472;2023-06-14T08:42:14;100589.44;;;19.48;70.42
4858;BME280;58975;51.978;8.472;2023-06-14T08:47:27;100583.44;;;19.60;68.50
4858;BME280;58975;51.978;8.472;2023-06-14T08:52:27;100593.22;;;19.92;69.33
4858;BME280;58975;51.978;8.472;2023-06-14T08:57:27;100595.19;;;20.29;67.60
4858;BME280;58975;51.978;8.472;2023-06-14T09:02:27;100588.53;;;20.54;66.08
4858;BME280;58975;51.978;8.472;2023-06-14T09:07:23;100596.56;;;20.62;68.30
4858;BME280;58975;51.978;8.472;2023-06-14T09:12:20;100593.59;;;20.57;64.52
4858;BME280;58975;51.978;8.472;2023-06-14T09:17:16;100598.88;;;20.51;63.30
4858;BME280;58975;51.978;8.472;2023-06-14T09:22:13;100595.75;;;20.16;63.20
4858;BME280;58975;51.978;8.472;2023-06-14T09:27:15;100590.09;;;20.86;65.12
4858;BME280;58975;51.978;8.472;2023-06-14T09:32:11;100597.69;;;21.35;62.81
4858;BME280;58975;51.978;8.472;2023-06-14T09:37:08;100608.09;;;21.16;63.85
4858;BME280;58975;51.978;8.472;2023-06-14T09:42:16;100607.41;;;21.44;60.38
4858;BME280;58975;51.978;8.472;2023-06-14T09:47:18;100594.25;;;21.26;58.08
4858;BME280;58975;51.978;8.472;2023-06-14T09:52:17;100600.00;;;21.52;60.10
4858;BME280;58975;51.978;8.472;2023-06-14T09:57:21;100600.63;;;21.69;57.93
4858;BME280;58975;51.978;8.472;2023-06-14T10:02:34;100603.69;;;21.15;55.55
4858;BME280;58975;51.978;8.472;2023-06-14T10:07:43;100592.00;;;21.44;58.67
4858;BME280;58975;51.978;8.472;2023-06-14T10:12:42;100596.50;;;21.73;58.04
4858;BME280;58975;51.978;8.472;2023-06-14T10:17:47;100585.44;;;21.89;56.61
4858;BME280;58975;51.978;8.472;2023-06-14T10:22:50;100573.56;;;21.90;54.60
4858;BME280;58975;51.978;8.472;2023-06-14T10:27:49;100583.53;;;22.26;56.09
4858;BME280;58975;51.978;8.472;2023-06-14T10:33:05;100595.91;;;22.56;54.79
4858;BME280;58975;51.978;8.472;2023-06-14T10:38:10;100583.00;;;22.15;54.35
4858;BME280;58975;51.978;8.472;2023-06-14T10:43:22;100594.00;;;21.57;57.50
4858;BME280;58975;51.978;8.472;2023-06-14T10:48:29;100578.72;;;21.85;58.00
4858;BME280;58975;51.978;8.472;2023-06-14T10:53:26;100589.88;;;22.33;55.14
4858;BME280;58975;51.978;8.472;2023-06-14T10:58:22;100568.78;;;22.35;55.76
4858;BME280;58975;51.978;8.472;2023-06-14T11:03:50;100575.91;;;22.36;55.57
4858;BME280;58975;51.978;8.472;2023-06-14T11:10:17;100574.81;;;22.09;52.91
4858;BME280;58975;51.978;8.472;2023-06-14T11:14:40;100563.38;;;21.92;56.46
4858;BME280;58975;51.978;8.472;2023-06-14T11:19:37;100577.44;;;22.24;57.55
4858;BME280;58975;51.978;8.472;2023-06-14T11:24:33;100568.13;;;22.54;52.44
4858;BME280;58975;51.978;8.472;2023-06-14T11:29:30;100559.66;;;22.91;53.32
4858;BME280;58975;51.978;8.472;2023-06-14T11:34:28;100562.56;;;22.34;52.25
4858;BME280;58975;51.978;8.472;2023-06-14T11:39:24;100568.13;;;22.54;51.97
4858;BME280;58975;51.978;8.472;2023-06-14T11:44:21;100564.84;;;22.86;51.72
4858;BME280;58975;51.978;8.472;2023-06-14T11:49:18;100538.78;;;22.92;50.61
4858;BME280;58975;51.978;8.472;2023-06-14T11:54:15;100552.53;;;22.90;50.05
4858;BME280;58975;51.978;8.472;2023-06-14T11:59:13;100559.31;;;23.01;49.28
4858;BME280;58975;51.978;8.472;2023-06-14T12:04:10;100554.78;;;23.21;51.07
4858;BME280;58975;51.978;8.472;2023-06-14T12:09:07;100549.34;;;23.21;51.00
4858;BME280;58975;51.978;8.472;2023-06-14T12:14:10;100541.75;;;23.03;50.46
4858;BME280;58975;51.978;8.472;2023-06-14T12:19:12;100553.75;;;22.60;51.94
4858;BME280;58975;51.978;8.472;2023-06-14T12:24:11;100542.66;;;23.58;49.75
4858;BME280;58975;51.978;8.472;2023-06-14T12:29:09;100551.19;;;23.48;49.08
4858;BME280;58975;51.978;8.472;2023-06-14T12:34:07;100535.78;;;23.21;49.66
4858;BME280;58975;51.978;8.472;2023-06-14T12:39:03;100530.59;;;23.33;50.18
4858;BME280;58975;51.978;8.472;2023-06-14T12:44:00;100536.19;;;23.66;49.49
4858;BME280;58975;51.978;8.472;2023-06-14T12:49:01;100533.28;;;23.67;47.64
4858;BME280;58975;51.978;8.472;2023-06-14T12:53:57;100532.69;;;23.85;47.38
4858;BME280;58975;51.978;8.472;2023-06-14T12:58:54;100538.19;;;24.31;46.91
4858;BME280;58975;51.978;8.472;2023-06-14T13:03:50;100531.66;;;23.86;47.71
4858;BME280;58975;51.978;8.472;2023-06-14T13:08:50;100543.97;;;23.75;47.42
4858;BME280;58975;51.978;8.472;2023-06-14T13:13:46;100532.25;;;23.81;47.51
4858;BME280;58975;51.978;8.472;2023-06-14T13:18:43;100530.19;;;23.96;45.77
4858;BME280;58975;51.978;8.472;2023-06-14T13:23:39;100534.41;;;24.06;47.84
4858;BME280;58975;51.978;8.472;2023-06-14T13:28:36;100528.75;;;24.92;44.83
4858;BME280;58975;51.978;8.472;2023-06-14T13:33:32;100532.94;;;24.10;46.33
4858;BME280;58975;51.978;8.472;2023-06-14T13:38:29;100538.63;;;24.15;47.43
4858;BME280;58975;51.978;8.472;2023-06-14T13:43:25;100546.81;;;24.54;45.36
4858;BME280;58975;51.978;8.472;2023-06-14T13:48:22;100532.50;;;24.13;46.60
4858;BME280;58975;51.978;8.472;2023-06-14T13:53:18;100534.84;;;24.29;45.34
4858;BME280;58975;51.978;8.472;2023-06-14T13:58:15;100525.84;;;24.61;47.24
4858;BME280;58975;51.978;8.472;2023-06-14T14:03:11;100531.50;;;24.53;46.04
4858;BME280;58975;51.978;8.472;2023-06-14T14:08:08;100519.53;;;24.01;47.20
4858;BME280;58975;51.978;8.472;2023-06-14T14:13:04;100525.91;;;23.48;48.03
4858;BME280;58975;51.978;8.472;2023-06-14T14:18:01;100522.44;;;23.87;47.92
4858;BME280;58975;51.978;8.472;2023-06-14T14:23:00;100526.66;;;24.02;46.65
4858;BME280;58975;51.978;8.472;2023-06-14T14:27:56;100526.19;;;23.79;45.65
4858;BME280;58975;51.978;8.472;2023-06-14T14:32:53;100538.84;;;23.46;47.47
4858;BME280;58975;51.978;8.472;2023-06-14T14:37:50;100537.03;;;23.60;48.76
4858;BME280;58975;51.978;8.472;2023-06-14T14:42:46;100530.31;;;23.62;48.45
4858;BME280;58975;51.978;8.472;2023-06-14T14:47:43;100537.94;;;23.86;47.60
4858;BME280;58975;51.978;8.472;2023-06-14T14:52:39;100540.78;;;23.65;48.77
4858;BME280;58975;51.978;8.472;2023-06-14T14:57:36;100535.59;;;23.23;48.52
4858;BME280;58975;51.978;8.472;2023-06-14T15:02:32;100533.22;;;22.72;48.53
4858;BME280;58975;51.978;8.472;2023-06-14T15:07:32;100529.94;;;23.72;49.91
4858;BME280;58975;51.978;8.472;2023-06-14T15:12:29;100526.69;;;24.29;47.07
4858;BME280;58975;51.978;8.472;2023-06-14T15:17:26;100510.31;;;24.81;46.50
4858;BME280;58975;51.978;8.472;2023-06-14T15:22:23;100512.44;;;25.37;44.66
4858;BME280;58975;51.978;8.472;2023-06-14T15:27:19;100510.16;;;25.72;43.96
4858;BME280;58975;51.978;8.472;2023-06-14T15:32:16;100511.69;;;25.17;45.00
4858;BME280;58975;51.978;8.472;2023-06-14T15:37:12;100506.50;;;25.02;45.13
4858;BME280;58975;51.978;8.472;2023-06-14T15:42:09;100518.72;;;24.47;46.11
4858;BME280;58975;51.978;8.472;2023-06-14T15:47:06;100520.28;;;25.14;46.78
4858;BME280;58975;51.978;8.472;2023-06-14T15:52:03;100509.44;;;25.01;45.90
4858;BME280;58975;51.978;8.472;2023-06-14T15:57:00;100512.19;;;25.45;45.88
4858;BME280;58975;51.978;8.472;2023-06-14T16:01:57;100508.59;;;25.51;45.95
4858;BME280;58975;51.978;8.472;2023-06-14T16:06:53;100504.50;;;25.29;44.44
4858;BME280;58975;51.978;8.472;2023-06-14T16:11:50;100506.38;;;25.79;44.68
4858;BME280;58975;51.978;8.472;2023-06-14T16:16:46;100497.50;;;25.84;43.47
4858;BME280;58975;51.978;8.472;2023-06-14T16:21:44;100497.25;;;26.66;43.96
4858;BME280;58975;51.978;8.472;2023-06-14T16:26:40;100491.09;;;26.28;43.63
4858;BME280;58975;51.978;8.472;2023-06-14T16:31:37;100496.03;;;26.13;43.69
4858;BME280;58975;51.978;8.472;2023-06-14T16:36:33;100493.00;;;25.71;44.02
4858;BME280;58975;51.978;8.472;2023-06-14T16:41:30;100494.75;;;25.59;45.60
4858;BME280;58975;51.978;8.472;2023-06-14T16:46:28;100498.72;;;27.05;42.40
4858;BME280;58975;51.978;8.472;2023-06-14T16:51:26;100494.28;;;28.65;40.26
4858;BME280;58975;51.978;8.472;2023-06-14T16:56:23;100493.88;;;28.15;40.80
4858;BME280;58975;51.978;8.472;2023-06-14T17:01:25;100492.78;;;29.32;37.58
4858;BME280;58975;51.978;8.472;2023-06-14T17:06:22;100489.00;;;31.38;34.26
4858;BME280;58975;51.978;8.472;2023-06-14T17:11:21;100490.38;;;32.16;32.63
4858;BME280;58975;51.978;8.472;2023-06-14T17:16:21;100489.28;;;33.63;30.58
4858;BME280;58975;51.978;8.472;2023-06-14T17:21:17;100497.75;;;31.84;31.79
4858;BME280;58975;51.978;8.472;2023-06-14T17:26:14;100505.13;;;32.05;31.61
4858;BME280;58975;51.978;8.472;2023-06-14T17:31:10;100494.19;;;33.36;30.63
4858;BME280;58975;51.978;8.472;2023-06-14T17:36:07;100502.16;;;33.27;30.16
4858;BME280;58975;51.978;8.472;2023-06-14T17:41:04;100504.97;;;32.49;30.76
4858;BME280;58975;51.978;8.472;2023-06-14T17:46:05;100498.34;;;33.54;30.06
4858;BME280;58975;51.978;8.472;2023-06-14T17:51:03;100499.13;;;32.82;30.24
4858;BME280;58975;51.978;8.472;2023-06-14T17:56:02;100499.78;;;32.57;30.39
4858;BME280;58975;51.978;8.472;2023-06-14T18:00:59;100502.53;;;32.20;30.63
4858;BME280;58975;51.978;8.472;2023-06-14T18:05:56;100512.59;;;30.24;32.92
4858;BME280;58975;51.978;8.472;2023-06-14T18:10:54;100515.69;;;31.60;32.11
4858;BME280;58975;51.978;8.472;2023-06-14T18:15:51;100525.50;;;30.40;33.46
4858;BME280;58975;51.978;8.472;2023-06-14T18:20:48;100525.19;;;30.37;34.40
4858;BME280;58975;51.978;8.472;2023-06-14T18:25:44;100525.00;;;30.77;32.92
4858;BME280;58975;51.978;8.472;2023-06-14T18:30:41;100530.44;;;30.38;32.77
4858;BME280;58975;51.978;8.472;2023-06-14T18:35:37;100533.50;;;30.75;32.86
4858;BME280;58975;51.978;8.472;2023-06-14T18:40:34;100532.72;;;29.96;32.36
4858;BME280;58975;51.978;8.472;2023-06-14T18:45:32;100537.09;;;28.78;34.67
4858;BME280;58975;51.978;8.472;2023-06-14T18:50:28;100541.50;;;28.14;35.33
4858;BME280;58975;51.978;8.472;2023-06-14T18:55:25;100540.06;;;27.82;37.18
4858;BME280;58975;51.978;8.472;2023-06-14T19:00:21;100543.09;;;27.44;36.86
4858;BME280;58975;51.978;8.472;2023-06-14T19:05:18;100551.19;;;26.53;38.50
4858;BME280;58975;51.978;8.472;2023-06-14T19:10:19;100558.44;;;26.41;39.21
4858;BME280;58975;51.978;8.472;2023-06-14T19:15:16;100550.19;;;25.33;40.91
4858;BME280;58975;51.978;8.472;2023-06-14T19:20:13;100566.00;;;24.07;43.41
4858;BME280;58975;51.978;8.472;2023-06-14T19:25:09;100573.97;;;23.13;45.40
4858;BME280;58975;51.978;8.472;2023-06-14T19:30:06;100567.47;;;22.03;49.63
4858;BME280;58975;51.978;8.472;2023-06-14T19:35:04;100579.59;;;21.20;49.68
4858;BME280;58975;51.978;8.472;2023-06-14T19:40:03;100591.16;;;20.62;52.02
4858;BME280;58975;51.978;8.472;2023-06-14T19:45:00;100597.56;;;20.24;54.42
4858;BME280;58975;51.978;8.472;2023-06-14T19:49:56;100603.78;;;19.79;56.48
4858;BME280;58975;51.978;8.472;2023-06-14T19:54:54;100602.25;;;19.46;60.16
4858;BME280;58975;51.978;8.472;2023-06-14T19:59:50;100613.47;;;19.26;61.79
4858;BME280;58975;51.978;8.472;2023-06-14T20:04:47;100616.88;;;19.12;64.39
4858;BME280;58975;51.978;8.472;2023-06-14T20:09:44;100620.63;;;18.95;69.90
4858;BME280;58975;51.978;8.472;2023-06-14T20:14:41;100630.44;;;18.72;79.77
4858;BME280;58975;51.978;8.472;2023-06-14T20:19:37;100634.50;;;18.52;83.53
4858;BME280;58975;51.978;8.472;2023-06-14T20:24:34;100630.75;;;18.20;88.35
4858;BME280;58975;51.978;8.472;2023-06-14T20:29:31;100628.84;;;17.96;93.67
4858;BME280;58975;51.978;8.472;2023-06-14T20:34:30;100634.34;;;17.71;100.00
4858;BME280;58975;51.978;8.472;2023-06-14T20:39:26;100628.88;;;17.55;100.00
4858;BME280;58975;51.978;8.472;2023-06-14T20:44:23;100624.63;;;17.44;100.00
4858;BME280;58975;51.978;8.472;2023-06-14T20:49:25;100631.34;;;17.40;100.00
4858;BME280;58975;51.978;8.472;2023-06-14T20:54:24;100628.09;;;17.28;100.00
4858;BME280;58975;51.978;8.472;2023-06-14T20:59:20;100628.06;;;17.20;100.00
4858;BME280;58975;51.978;8.472;2023-06-14T21:04:17;100634.34;;;17.03;100.00
4858;BME280;58975;51.978;8.472;2023-06-14T21:09:14;100637.97;;;16.94;100.00
4858;BME280;58975;51.978;8.472;2023-06-14T21:14:12;100634.03;;;16.80;100.00
4858;BME280;58975;51.978;8.472;2023-06-14T21:19:09;100633.84;;;16.74;100.00
4858;BME280;58975;51.978;8.472;2023-06-14T21:24:05;100632.38;;;16.62;100.00
4858;BME280;58975;51.978;8.472;2023-06-14T21:29:03;100625.06;;;16.54;100.00
4858;BME280;58975;51.978;8.472;2023-06-14T21:34:00;100628.22;;;16.49;100.00
4858;BME280;58975;51.978;8.472;2023-06-14T21:38:56;100634.97;;;16.36;100.00
4858;BME280;58975;51.978;8.472;2023-06-14T21:43:53;100628.53;;;16.29;100.00
4858;BME280;58975;51.978;8.472;2023-06-14T21:48:50;100624.09;;;16.20;100.00
4858;BME280;58975;51.978;8.472;2023-06-14T21:53:46;100631.78;;;16.15;100.00
4858;BME280;58975;51.978;8.472;2023-06-14T21:58:45;100621.09;;;16.05;100.00
4858;BME280;58975;51.978;8.472;2023-06-14T22:03:42;100626.25;;;15.98;100.00
4858;BME280;58975;51.978;8.472;2023-06-14T22:08:38;100624.03;;;15.94;100.00
4858;BME280;58975;51.978;8.472;2023-06-14T22:13:38;100624.03;;;15.94;100.00
4858;BME280;58975;51.978;8.472;2023-06-14T22:18:34;100623.69;;;15.79;100.00
4858;BME280;58975;51.978;8.472;2023-06-14T22:23:32;100624.16;;;15.75;100.00
4858;BME280;58975;51.978;8.472;2023-06-14T22:28:35;100629.88;;;15.62;100.00
4858;BME280;58975;51.978;8.472;2023-06-14T22:33:38;100638.41;;;15.48;100.00
4858;BME280;58975;51.978;8.472;2023-06-14T22:38:38;100639.38;;;15.20;100.00
4858;BME280;58975;51.978;8.472;2023-06-14T22:43:41;100635.25;;;14.88;100.00
4858;BME280;58975;51.978;8.472;2023-06-14T22:48:39;100643.72;;;14.74;100.00
4858;BME280;58975;51.978;8.472;2023-06-14T22:53:42;100642.47;;;14.68;100.00
4858;BME280;58975;51.978;8.472;2023-06-14T22:58:39;100643.47;;;14.67;100.00
4858;BME280;58975;51.978;8.472;2023-06-14T23:03:37;100642.31;;;14.80;100.00
4858;BME280;58975;51.978;8.472;2023-06-14T23:08:34;100642.84;;;14.93;100.00
4858;BME280;58975;51.978;8.472;2023-06-14T23:13:31;100637.00;;;15.07;100.00
4858;BME280;58975;51.978;8.472;2023-06-14T23:18:27;100641.63;;;15.24;100.00
4858;BME280;58975;51.978;8.472;2023-06-14T23:23:25;100638.19;;;15.32;100.00
4858;BME280;58975;51.978;8.472;2023-06-14T23:28:23;100639.72;;;15.34;100.00
4858;BME280;58975;51.978;8.472;2023-06-14T23:33:19;100639.03;;;15.32;100.00
4858;BME280;58975;51.978;8.472;2023-06-14T23:38:16;100645.50;;;15.39;100.00
4858;BME280;58975;51.978;8.472;2023-06-14T23:43:14;100634.47;;;15.42;100.00
4858;BME280;58975;51.978;8.472;2023-06-14T23:48:10;100643.38;;;15.52;100.00
4858;BME280;58975;51.978;8.472;2023-06-14T23:53:07;100644.72;;;15.56;100.00
4858;BME280;58975;51.978;8.472;2023-06-14T23:58:04;100637.53;;;15.57;100.00
